Terminal Aerodrome Forecast
Issued by NWS

Home | Current Version | Previous Version | Text Only | Print | Product List | Glossary On
Versions: 1 2 3 4 5 6 7 8 9 10 11 12 13 14 15 16 17 18 19 20 21 22 23
433
FTUS43 KDLH 200539
TAFHIB
TAF
KHIB 200539Z 2006/2106 00000KT 1/4SM FZFG VV003
     FM201400 15006KT 3/4SM -FZDZ BR OVC003
     FM201800 13006KT 1 1/2SM -RA BR OVC004
     FM202200 13005KT 2SM -SN BR OVC007=

USA.gov is the U.S. government's official web portal to all federal, state and local government web resources and services.